sensor_id;sensor_type;location;lat;lon;timestamp;pressure;altitude;pressure_sealevel;temperature;humidity
56374;BME280;58212;47.034;7.376;2023-08-07T00:01:07;95625.50;;;11.66;77.17
56374;BME280;58212;47.034;7.376;2023-08-07T00:03:34;95628.25;;;11.71;76.68
56374;BME280;58212;47.034;7.376;2023-08-07T00:06:01;95622.50;;;11.63;76.41
56374;BME280;58212;47.034;7.376;2023-08-07T00:08:31;95632.03;;;11.64;77.49
56374;BME280;58212;47.034;7.376;2023-08-07T00:11:04;95630.66;;;11.61;76.84
56374;BME280;58212;47.034;7.376;2023-08-07T00:13:32;95643.91;;;11.50;77.08
56374;BME280;58212;47.034;7.376;2023-08-07T00:15:59;95634.25;;;11.55;77.56
56374;BME280;58212;47.034;7.376;2023-08-07T00:18:28;95634.69;;;11.52;77.29
56374;BME280;58212;47.034;7.376;2023-08-07T00:20:55;95637.94;;;11.43;77.38
56374;BME280;58212;47.034;7.376;2023-08-07T00:23:23;95637.38;;;11.41;77.03
56374;BME280;58212;47.034;7.376;2023-08-07T00:25:50;95634.13;;;11.50;77.87
56374;BME280;58212;47.034;7.376;2023-08-07T00:28:20;95636.91;;;11.44;77.83
56374;BME280;58212;47.034;7.376;2023-08-07T00:30:51;95634.59;;;11.47;77.00
56374;BME280;58212;47.034;7.376;2023-08-07T00:33:17;95642.75;;;11.46;77.79
56374;BME280;58212;47.034;7.376;2023-08-07T00:35:47;95651.19;;;11.54;77.25
56374;BME280;58212;47.034;7.376;2023-08-07T00:38:14;95640.81;;;11.64;77.79
56374;BME280;58212;47.034;7.376;2023-08-07T00:40:41;95641.41;;;11.43;77.79
56374;BME280;58212;47.034;7.376;2023-08-07T00:43:10;95645.75;;;11.49;78.22
56374;BME280;58212;47.034;7.376;2023-08-07T00:45:42;95645.53;;;11.62;76.09
56374;BME280;58212;47.034;7.376;2023-08-07T00:48:10;95643.44;;;11.64;76.38
56374;BME280;58212;47.034;7.376;2023-08-07T00:50:38;95644.59;;;11.57;77.07
56374;BME280;58212;47.034;7.376;2023-08-07T00:53:08;95639.44;;;11.62;77.73
56374;BME280;58212;47.034;7.376;2023-08-07T00:55:36;95641.53;;;11.48;78.10
56374;BME280;58212;47.034;7.376;2023-08-07T00:58:03;95644.50;;;11.40;79.08
56374;BME280;58212;47.034;7.376;2023-08-07T01:00:30;95639.88;;;11.36;78.93
56374;BME280;58212;47.034;7.376;2023-08-07T01:02:59;95637.94;;;11.31;77.88
56374;BME280;58212;47.034;7.376;2023-08-07T01:05:28;95640.59;;;11.43;77.49
56374;BME280;58212;47.034;7.376;2023-08-07T01:07:55;95642.19;;;11.44;76.09
56374;BME280;58212;47.034;7.376;2023-08-07T01:10:32;95641.75;;;11.47;77.44
56374;BME280;58212;47.034;7.376;2023-08-07T01:13:09;95646.56;;;11.38;78.32
56374;BME280;58212;47.034;7.376;2023-08-07T01:15:40;95646.22;;;11.35;78.75
56374;BME280;58212;47.034;7.376;2023-08-07T01:18:11;95650.84;;;11.39;78.79
56374;BME280;58212;47.034;7.376;2023-08-07T01:20:38;95642.75;;;11.34;79.00
56374;BME280;58212;47.034;7.376;2023-08-07T01:23:10;95646.69;;;11.32;79.30
56374;BME280;58212;47.034;7.376;2023-08-07T01:25:37;95651.84;;;11.26;78.09
56374;BME280;58212;47.034;7.376;2023-08-07T01:28:12;95646.31;;;11.16;78.48
56374;BME280;58212;47.034;7.376;2023-08-07T01:30:48;95651.16;;;11.19;79.20
56374;BME280;58212;47.034;7.376;2023-08-07T01:33:22;95649.31;;;10.97;79.73
56374;BME280;58212;47.034;7.376;2023-08-07T01:35:53;95646.41;;;10.98;79.79
56374;BME280;58212;47.034;7.376;2023-08-07T01:38:25;95648.25;;;10.98;77.95
56374;BME280;58212;47.034;7.376;2023-08-07T01:40:56;95638.72;;;11.20;75.20
56374;BME280;58212;47.034;7.376;2023-08-07T01:43:24;95643.34;;;11.36;75.33
56374;BME280;58212;47.034;7.376;2023-08-07T01:45:51;95643.78;;;11.45;76.17
56374;BME280;58212;47.034;7.376;2023-08-07T01:48:18;95639.56;;;11.32;73.99
56374;BME280;58212;47.034;7.376;2023-08-07T01:50:45;95646.00;;;11.48;74.21
56374;BME280;58212;47.034;7.376;2023-08-07T01:53:13;95647.47;;;11.67;73.43
56374;BME280;58212;47.034;7.376;2023-08-07T01:55:41;95643.91;;;11.38;74.54
56374;BME280;58212;47.034;7.376;2023-08-07T01:58:08;95640.34;;;11.56;74.45
56374;BME280;58212;47.034;7.376;2023-08-07T02:00:38;95648.41;;;11.61;75.26
56374;BME280;58212;47.034;7.376;2023-08-07T02:03:07;95644.97;;;11.72;75.26
56374;BME280;58212;47.034;7.376;2023-08-07T02:05:34;95644.63;;;11.80;74.66
56374;BME280;58212;47.034;7.376;2023-08-07T02:08:01;95634.94;;;11.62;73.17
56374;BME280;58212;47.034;7.376;2023-08-07T02:10:30;95643.91;;;11.61;74.17
56374;BME280;58212;47.034;7.376;2023-08-07T02:12:59;95653.97;;;11.71;72.89
56374;BME280;58212;47.034;7.376;2023-08-07T02:15:26;95654.19;;;11.58;75.04
56374;BME280;58212;47.034;7.376;2023-08-07T02:17:53;95659.03;;;11.72;75.17
56374;BME280;58212;47.034;7.376;2023-08-07T02:20:20;95659.03;;;11.72;74.52
56374;BME280;58212;47.034;7.376;2023-08-07T02:22:47;95650.16;;;11.44;75.96
56374;BME280;58212;47.034;7.376;2023-08-07T02:25:15;95655.91;;;11.41;76.77
56374;BME280;58212;47.034;7.376;2023-08-07T02:27:42;95664.78;;;11.35;76.59
56374;BME280;58212;47.034;7.376;2023-08-07T02:30:12;95666.97;;;11.26;76.88
56374;BME280;58212;47.034;7.376;2023-08-07T02:32:40;95666.84;;;11.33;75.49
56374;BME280;58212;47.034;7.376;2023-08-07T02:35:09;95664.22;;;11.44;75.06
56374;BME280;58212;47.034;7.376;2023-08-07T02:37:37;95663.53;;;11.37;76.84
56374;BME280;58212;47.034;7.376;2023-08-07T02:40:05;95664.53;;;11.24;77.60
56374;BME280;58212;47.034;7.376;2023-08-07T02:42:34;95661.78;;;11.43;76.87
56374;BME280;58212;47.034;7.376;2023-08-07T02:45:02;95665.72;;;11.40;76.86
56374;BME280;58212;47.034;7.376;2023-08-07T02:47:31;95658.78;;;11.27;78.03
56374;BME280;58212;47.034;7.376;2023-08-07T02:49:58;95665.22;;;11.32;78.50
56374;BME280;58212;47.034;7.376;2023-08-07T02:52:26;95664.06;;;11.27;76.78
56374;BME280;58212;47.034;7.376;2023-08-07T02:54:53;95656.25;;;11.33;77.61
56374;BME280;58212;47.034;7.376;2023-08-07T02:57:20;95664.53;;;11.24;78.07
56374;BME280;58212;47.034;7.376;2023-08-07T02:59:47;95663.25;;;11.27;77.57
56374;BME280;58212;47.034;7.376;2023-08-07T03:02:14;95668.34;;;11.28;78.94
56374;BME280;58212;47.034;7.376;2023-08-07T03:04:44;95664.88;;;11.16;79.12
56374;BME280;58212;47.034;7.376;2023-08-07T03:07:11;95670.16;;;11.16;79.07
56374;BME280;58212;47.034;7.376;2023-08-07T03:09:42;95665.69;;;11.28;77.71
56374;BME280;58212;47.034;7.376;2023-08-07T03:12:12;95665.44;;;11.30;76.83
56374;BME280;58212;47.034;7.376;2023-08-07T03:14:39;95664.19;;;11.33;77.82
56374;BME280;58212;47.034;7.376;2023-08-07T03:17:06;95665.34;;;11.25;78.12
56374;BME280;58212;47.034;7.376;2023-08-07T03:19:33;95664.19;;;11.33;77.92
56374;BME280;58212;47.034;7.376;2023-08-07T03:22:01;95670.72;;;11.07;78.40
56374;BME280;58212;47.034;7.376;2023-08-07T03:24:29;95682.56;;;10.93;79.33
56374;BME280;58212;47.034;7.376;2023-08-07T03:26:56;95683.00;;;10.90;79.52
56374;BME280;58212;47.034;7.376;2023-08-07T03:29:26;95683.28;;;11.00;78.18
56374;BME280;58212;47.034;7.376;2023-08-07T03:31:54;95683.38;;;11.05;78.52
56374;BME280;58212;47.034;7.376;2023-08-07T03:34:21;95682.69;;;11.09;78.83
56374;BME280;58212;47.034;7.376;2023-08-07T03:36:50;95673.84;;;11.04;78.92
56374;BME280;58212;47.034;7.376;2023-08-07T03:39:20;95672.00;;;11.16;78.00
56374;BME280;58212;47.034;7.376;2023-08-07T03:41:47;95659.91;;;11.08;78.30
56374;BME280;58212;47.034;7.376;2023-08-07T03:44:16;95666.13;;;11.14;79.44
56374;BME280;58212;47.034;7.376;2023-08-07T03:47:02;95660.00;;;11.02;78.16
56374;BME280;58212;47.034;7.376;2023-08-07T03:49:29;95664.38;;;10.96;78.67
56374;BME280;58212;47.034;7.376;2023-08-07T03:51:56;95657.00;;;10.98;78.87
56374;BME280;58212;47.034;7.376;2023-08-07T03:54:26;95665.63;;;10.82;78.96
56374;BME280;58212;47.034;7.376;2023-08-07T03:56:53;95660.56;;;10.92;78.84
56374;BME280;58212;47.034;7.376;2023-08-07T03:59:21;95662.06;;;10.88;78.43
56374;BME280;58212;47.034;7.376;2023-08-07T04:01:48;95659.91;;;11.08;77.93
56374;BME280;58212;47.034;7.376;2023-08-07T04:04:15;95655.91;;;11.17;77.91
56374;BME280;58212;47.034;7.376;2023-08-07T04:06:43;95662.13;;;11.35;77.45
56374;BME280;58212;47.034;7.376;2023-08-07T04:09:11;95659.44;;;11.23;77.63
56374;BME280;58212;47.034;7.376;2023-08-07T04:11:40;95658.91;;;11.33;75.93
56374;BME280;58212;47.034;7.376;2023-08-07T04:14:08;95656.81;;;11.35;76.08
56374;BME280;58212;47.034;7.376;2023-08-07T04:16:35;95661.91;;;11.36;76.82
56374;BME280;58212;47.034;7.376;2023-08-07T04:19:02;95668.81;;;11.49;76.06
56374;BME280;58212;47.034;7.376;2023-08-07T04:21:30;95670.28;;;11.21;76.78
56374;BME280;58212;47.034;7.376;2023-08-07T04:23:57;95675.25;;;11.30;77.51
56374;BME280;58212;47.034;7.376;2023-08-07T04:26:25;95674.78;;;11.21;77.04
56374;BME280;58212;47.034;7.376;2023-08-07T04:28:54;95674.22;;;11.31;77.56
56374;BME280;58212;47.034;7.376;2023-08-07T04:31:21;95680.66;;;11.23;76.96
56374;BME280;58212;47.034;7.376;2023-08-07T04:33:48;95672.47;;;11.24;77.56
56374;BME280;58212;47.034;7.376;2023-08-07T04:36:16;95672.72;;;11.11;78.21
56374;BME280;58212;47.034;7.376;2023-08-07T04:38:43;95670.41;;;11.26;76.23
56374;BME280;58212;47.034;7.376;2023-08-07T04:41:12;95675.59;;;11.45;77.28
56374;BME280;58212;47.034;7.376;2023-08-07T04:43:39;95677.78;;;11.59;76.47
56374;BME280;58212;47.034;7.376;2023-08-07T04:46:08;95668.44;;;11.45;77.19
56374;BME280;58212;47.034;7.376;2023-08-07T04:48:35;95678.25;;;11.56;75.94
56374;BME280;58212;47.034;7.376;2023-08-07T04:51:02;95671.22;;;11.39;77.64
56374;BME280;58212;47.034;7.376;2023-08-07T04:53:30;95673.78;;;11.34;77.50
56374;BME280;58212;47.034;7.376;2023-08-07T04:55:59;95674.56;;;11.34;76.71
56374;BME280;58212;47.034;7.376;2023-08-07T04:58:26;95681.50;;;11.47;76.52
56374;BME280;58212;47.034;7.376;2023-08-07T05:00:55;95676.06;;;11.65;75.14
56374;BME280;58212;47.034;7.376;2023-08-07T05:03:24;95685.66;;;11.66;76.01
56374;BME280;58212;47.034;7.376;2023-08-07T05:05:58;95688.28;;;11.66;75.80
56374;BME280;58212;47.034;7.376;2023-08-07T05:08:25;95690.94;;;11.54;77.21
56374;BME280;58212;47.034;7.376;2023-08-07T05:10:53;95684.59;;;11.44;76.87
56374;BME280;58212;47.034;7.376;2023-08-07T05:13:20;95684.03;;;11.53;76.74
56374;BME280;58212;47.034;7.376;2023-08-07T05:15:47;95679.88;;;11.46;77.58
56374;BME280;58212;47.034;7.376;2023-08-07T05:18:14;95673.19;;;11.55;76.18
56374;BME280;58212;47.034;7.376;2023-08-07T05:20:43;95674.91;;;11.61;76.30
56374;BME280;58212;47.034;7.376;2023-08-07T05:23:10;95681.72;;;11.57;76.03
56374;BME280;58212;47.034;7.376;2023-08-07T05:25:41;95681.69;;;11.45;77.43
56374;BME280;58212;47.034;7.376;2023-08-07T05:28:08;95688.03;;;11.56;76.37
56374;BME280;58212;47.034;7.376;2023-08-07T05:30:36;95696.97;;;11.73;76.24
56374;BME280;58212;47.034;7.376;2023-08-07T05:33:03;95703.72;;;11.69;76.16
56374;BME280;58212;47.034;7.376;2023-08-07T05:35:30;95699.38;;;11.63;77.49
56374;BME280;58212;47.034;7.376;2023-08-07T05:37:58;95697.63;;;11.57;75.71
56374;BME280;58212;47.034;7.376;2023-08-07T05:40:27;95706.03;;;11.54;76.62
56374;BME280;58212;47.034;7.376;2023-08-07T05:42:55;95703.13;;;11.67;77.25
56374;BME280;58212;47.034;7.376;2023-08-07T05:45:22;95714.44;;;11.51;77.94
56374;BME280;58212;47.034;7.376;2023-08-07T05:47:49;95721.03;;;11.48;78.60
56374;BME280;58212;47.034;7.376;2023-08-07T05:50:17;95719.25;;;11.42;78.77
56374;BME280;58212;47.034;7.376;2023-08-07T05:52:47;95716.41;;;11.44;78.57
56374;BME280;58212;47.034;7.376;2023-08-07T05:55:15;95715.81;;;11.42;77.82
56374;BME280;58212;47.034;7.376;2023-08-07T05:57:43;95713.09;;;11.71;79.03
56374;BME280;58212;47.034;7.376;2023-08-07T06:00:10;95713.78;;;11.79;79.38
56374;BME280;58212;47.034;7.376;2023-08-07T06:02:41;95713.31;;;11.58;77.17
56374;BME280;58212;47.034;7.376;2023-08-07T06:05:08;95716.56;;;11.72;76.40
56374;BME280;58212;47.034;7.376;2023-08-07T06:07:38;95721.16;;;11.88;76.71
56374;BME280;58212;47.034;7.376;2023-08-07T06:10:06;95724.63;;;11.77;77.23
56374;BME280;58212;47.034;7.376;2023-08-07T06:12:35;95710.84;;;12.15;75.16
56374;BME280;58212;47.034;7.376;2023-08-07T06:15:03;95720.31;;;12.11;76.03
56374;BME280;58212;47.034;7.376;2023-08-07T06:17:30;95717.94;;;11.98;74.44
56374;BME280;58212;47.034;7.376;2023-08-07T06:19:57;95732.91;;;12.04;74.93
56374;BME280;58212;47.034;7.376;2023-08-07T06:22:24;95734.19;;;12.01;73.96
56374;BME280;58212;47.034;7.376;2023-08-07T06:24:52;95733.47;;;12.17;73.79
56374;BME280;58212;47.034;7.376;2023-08-07T06:27:21;95734.53;;;11.93;76.13
56374;BME280;58212;47.034;7.376;2023-08-07T06:29:49;95739.94;;;11.98;75.01
56374;BME280;58212;47.034;7.376;2023-08-07T06:32:16;95740.16;;;12.08;75.07
56374;BME280;58212;47.034;7.376;2023-08-07T06:34:44;95738.13;;;11.87;76.25
56374;BME280;58212;47.034;7.376;2023-08-07T06:37:12;95741.66;;;11.93;74.50
56374;BME280;58212;47.034;7.376;2023-08-07T06:39:39;95737.88;;;12.00;75.55
56374;BME280;58212;47.034;7.376;2023-08-07T06:42:07;95744.69;;;11.85;75.43
56374;BME280;58212;47.034;7.376;2023-08-07T06:44:35;95747.44;;;12.01;76.72
56374;BME280;58212;47.034;7.376;2023-08-07T06:47:04;95751.03;;;11.95;76.21
56374;BME280;58212;47.034;7.376;2023-08-07T06:49:33;95753.44;;;12.20;74.19
56374;BME280;58212;47.034;7.376;2023-08-07T06:52:00;95752.72;;;12.24;73.50
56374;BME280;58212;47.034;7.376;2023-08-07T06:54:27;95757.16;;;11.96;73.46
56374;BME280;58212;47.034;7.376;2023-08-07T06:56:56;95758.41;;;12.05;75.45
56374;BME280;58212;47.034;7.376;2023-08-07T06:59:23;95756.19;;;12.25;73.75
56374;BME280;58212;47.034;7.376;2023-08-07T07:01:52;95752.81;;;12.30;73.08
56374;BME280;58212;47.034;7.376;2023-08-07T07:04:20;95752.78;;;12.53;73.31
56374;BME280;58212;47.034;7.376;2023-08-07T07:06:48;95762.75;;;12.34;72.92
56374;BME280;58212;47.034;7.376;2023-08-07T07:09:15;95754.44;;;12.42;73.28
56374;BME280;58212;47.034;7.376;2023-08-07T07:11:43;95753.66;;;12.70;72.02
56374;BME280;58212;47.034;7.376;2023-08-07T07:14:10;95762.03;;;12.50;73.02
56374;BME280;58212;47.034;7.376;2023-08-07T07:16:37;95758.44;;;12.45;72.75
56374;BME280;58212;47.034;7.376;2023-08-07T07:19:04;95767.84;;;12.36;73.71
56374;BME280;58212;47.034;7.376;2023-08-07T07:21:37;95761.22;;;12.50;71.92
56374;BME280;58212;47.034;7.376;2023-08-07T07:24:05;95765.25;;;12.41;73.25
56374;BME280;58212;47.034;7.376;2023-08-07T07:26:32;95769.75;;;12.40;74.11
56374;BME280;58212;47.034;7.376;2023-08-07T07:28:59;95760.75;;;12.53;73.57
56374;BME280;58212;47.034;7.376;2023-08-07T07:31:26;95764.03;;;12.71;70.86
56374;BME280;58212;47.034;7.376;2023-08-07T07:33:54;95757.44;;;12.74;70.59
56374;BME280;58212;47.034;7.376;2023-08-07T07:36:22;95764.38;;;12.75;71.83
56374;BME280;58212;47.034;7.376;2023-08-07T07:38:50;95772.50;;;12.57;72.21
56374;BME280;58212;47.034;7.376;2023-08-07T07:41:17;95774.03;;;12.41;72.21
56374;BME280;58212;47.034;7.376;2023-08-07T07:43:45;95781.09;;;12.47;73.17
56374;BME280;58212;47.034;7.376;2023-08-07T07:46:13;95777.03;;;12.85;73.27
56374;BME280;58212;47.034;7.376;2023-08-07T07:48:40;95780.69;;;12.67;72.77
56374;BME280;58212;47.034;7.376;2023-08-07T07:51:09;95780.59;;;12.62;71.39
56374;BME280;58212;47.034;7.376;2023-08-07T07:53:36;95783.34;;;12.67;72.72
56374;BME280;58212;47.034;7.376;2023-08-07T07:56:05;95788.09;;;12.93;73.09
56374;BME280;58212;47.034;7.376;2023-08-07T07:58:32;95786.56;;;13.37;70.86
56374;BME280;58212;47.034;7.376;2023-08-07T08:01:00;95783.00;;;13.32;70.34
56374;BME280;58212;47.034;7.376;2023-08-07T08:03:30;95782.16;;;13.59;69.99
56374;BME280;58212;47.034;7.376;2023-08-07T08:05:57;95777.63;;;13.77;69.82
56374;BME280;58212;47.034;7.376;2023-08-07T08:08:24;95781.44;;;13.64;71.60
56374;BME280;58212;47.034;7.376;2023-08-07T08:10:55;95785.53;;;14.05;71.04
56374;BME280;58212;47.034;7.376;2023-08-07T08:13:23;95779.28;;;13.61;71.85
56374;BME280;58212;47.034;7.376;2023-08-07T08:16:16;95776.56;;;13.44;72.71
56374;BME280;58212;47.034;7.376;2023-08-07T08:18:43;95779.75;;;13.75;71.65
56374;BME280;58212;47.034;7.376;2023-08-07T08:21:10;95773.84;;;13.56;72.42
56374;BME280;58212;47.034;7.376;2023-08-07T08:23:38;95788.13;;;13.50;73.74
56374;BME280;58212;47.034;7.376;2023-08-07T08:26:06;95786.59;;;13.87;71.21
56374;BME280;58212;47.034;7.376;2023-08-07T08:28:34;95799.19;;;13.75;70.65
56374;BME280;58212;47.034;7.376;2023-08-07T08:31:01;95788.66;;;13.52;71.46
56374;BME280;58212;47.034;7.376;2023-08-07T08:33:29;95795.91;;;13.40;72.83
56374;BME280;58212;47.034;7.376;2023-08-07T08:35:55;95794.09;;;13.29;73.50
56374;BME280;58212;47.034;7.376;2023-08-07T08:38:23;95798.03;;;13.71;72.75
56374;BME280;58212;47.034;7.376;2023-08-07T08:40:57;95787.47;;;13.76;72.64
56374;BME280;58212;47.034;7.376;2023-08-07T08:43:25;95790.94;;;13.93;73.22
56374;BME280;58212;47.034;7.376;2023-08-07T08:45:56;95798.19;;;13.81;71.72
56374;BME280;58212;47.034;7.376;2023-08-07T08:48:23;95797.88;;;13.94;72.53
56374;BME280;58212;47.034;7.376;2023-08-07T08:50:52;95793.28;;;14.06;71.65
56374;BME280;58212;47.034;7.376;2023-08-07T08:53:20;95788.50;;;14.25;70.61
56374;BME280;58212;47.034;7.376;2023-08-07T08:55:50;95794.03;;;14.24;72.50
56374;BME280;58212;47.034;7.376;2023-08-07T08:58:19;95794.22;;;14.34;71.42
56374;BME280;58212;47.034;7.376;2023-08-07T09:00:47;95788.59;;;13.80;72.67
56374;BME280;58212;47.034;7.376;2023-08-07T09:03:17;95785.03;;;13.58;73.73
56374;BME280;58212;47.034;7.376;2023-08-07T09:05:47;95789.06;;;14.10;73.60
56374;BME280;58212;47.034;7.376;2023-08-07T09:08:14;95784.00;;;13.92;73.90
56374;BME280;58212;47.034;7.376;2023-08-07T09:10:41;95788.03;;;13.45;72.36
56374;BME280;58212;47.034;7.376;2023-08-07T09:13:11;95781.03;;;13.89;73.03
56374;BME280;58212;47.034;7.376;2023-08-07T09:15:43;95779.56;;;13.98;72.09
56374;BME280;58212;47.034;7.376;2023-08-07T09:18:18;95774.78;;;14.16;72.89
56374;BME280;58212;47.034;7.376;2023-08-07T09:20:48;95781.84;;;14.28;71.26
56374;BME280;58212;47.034;7.376;2023-08-07T09:23:15;95783.53;;;14.12;71.12
56374;BME280;58212;47.034;7.376;2023-08-07T09:25:42;95779.63;;;15.01;69.77
56374;BME280;58212;47.034;7.376;2023-08-07T09:28:12;95776.03;;;15.12;69.64
56374;BME280;58212;47.034;7.376;2023-08-07T09:31:06;95778.44;;;15.14;67.41
56374;BME280;58212;47.034;7.376;2023-08-07T09:33:38;95774.91;;;15.08;69.11
56374;BME280;58212;47.034;7.376;2023-08-07T09:36:05;95773.28;;;15.29;68.23
56374;BME280;58212;47.034;7.376;2023-08-07T09:38:32;95774.63;;;15.32;68.87
56374;BME280;58212;47.034;7.376;2023-08-07T09:41:00;95778.47;;;14.92;67.19
56374;BME280;58212;47.034;7.376;2023-08-07T09:43:28;95784.94;;;14.75;67.12
56374;BME280;58212;47.034;7.376;2023-08-07T09:46:02;95783.50;;;14.89;66.45
56374;BME280;58212;47.034;7.376;2023-08-07T09:48:29;95783.91;;;15.02;65.08
56374;BME280;58212;47.034;7.376;2023-08-07T09:51:00;95787.91;;;14.78;65.47
56374;BME280;58212;47.034;7.376;2023-08-07T09:53:29;95787.91;;;14.78;65.75
56374;BME280;58212;47.034;7.376;2023-08-07T09:55:56;95791.38;;;15.00;64.91
56374;BME280;58212;47.034;7.376;2023-08-07T09:58:24;95784.34;;;15.43;65.09
56374;BME280;58212;47.034;7.376;2023-08-07T10:00:51;95790.91;;;15.35;64.17
56374;BME280;58212;47.034;7.376;2023-08-07T10:03:19;95788.91;;;15.74;61.99
56374;BME280;58212;47.034;7.376;2023-08-07T10:05:46;95787.22;;;15.63;61.39
56374;BME280;58212;47.034;7.376;2023-08-07T10:08:15;95786.31;;;15.26;62.21
56374;BME280;58212;47.034;7.376;2023-08-07T10:10:42;95785.69;;;15.45;62.11
56374;BME280;58212;47.034;7.376;2023-08-07T10:13:13;95789.88;;;15.36;62.92
56374;BME280;58212;47.034;7.376;2023-08-07T10:15:40;95786.59;;;15.56;61.81
56374;BME280;58212;47.034;7.376;2023-08-07T10:18:08;95783.44;;;15.32;61.78
56374;BME280;58212;47.034;7.376;2023-08-07T10:20:37;95788.22;;;15.08;61.37
56374;BME280;58212;47.034;7.376;2023-08-07T10:23:08;95783.81;;;14.92;60.91
56374;BME280;58212;47.034;7.376;2023-08-07T10:25:40;95787.28;;;15.20;61.17
56374;BME280;58212;47.034;7.376;2023-08-07T10:28:10;95781.69;;;14.94;60.88
56374;BME280;58212;47.034;7.376;2023-08-07T10:30:41;95784.81;;;15.13;60.92
56374;BME280;58212;47.034;7.376;2023-08-07T10:33:09;95783.94;;;15.29;63.09
56374;BME280;58212;47.034;7.376;2023-08-07T10:35:36;95783.47;;;15.37;61.96
56374;BME280;58212;47.034;7.376;2023-08-07T10:38:07;95784.19;;;15.28;62.45
56374;BME280;58212;47.034;7.376;2023-08-07T10:40:59;95781.00;;;15.31;63.09
56374;BME280;58212;47.034;7.376;2023-08-07T10:43:27;95780.69;;;15.49;62.92
56374;BME280;58212;47.034;7.376;2023-08-07T10:45:54;95780.72;;;15.54;62.14
56374;BME280;58212;47.034;7.376;2023-08-07T10:48:26;95771.56;;;16.08;58.20
56374;BME280;58212;47.034;7.376;2023-08-07T10:50:56;95771.63;;;16.60;55.74
56374;BME280;58212;47.034;7.376;2023-08-07T10:53:29;95772.06;;;16.47;57.57
56374;BME280;58212;47.034;7.376;2023-08-07T10:55:56;95775.75;;;16.83;55.98
56374;BME280;58212;47.034;7.376;2023-08-07T10:58:26;95780.03;;;16.37;55.27
56374;BME280;58212;47.034;7.376;2023-08-07T11:01:18;95778.63;;;15.88;55.58
56374;BME280;58212;47.034;7.376;2023-08-07T11:03:49;95779.19;;;15.63;56.21
56374;BME280;58212;47.034;7.376;2023-08-07T11:06:16;95773.47;;;15.76;56.63
56374;BME280;58212;47.034;7.376;2023-08-07T11:08:43;95776.13;;;15.76;56.29
56374;BME280;58212;47.034;7.376;2023-08-07T11:11:10;95777.16;;;15.70;57.29
56374;BME280;58212;47.034;7.376;2023-08-07T11:13:42;95790.13;;;15.88;59.78
56374;BME280;58212;47.034;7.376;2023-08-07T11:16:09;95784.44;;;15.53;59.51
56374;BME280;58212;47.034;7.376;2023-08-07T11:18:37;95783.09;;;15.50;57.86
56374;BME280;58212;47.034;7.376;2023-08-07T11:21:06;95786.06;;;15.54;57.01
56374;BME280;58212;47.034;7.376;2023-08-07T11:23:34;95774.16;;;15.98;56.02
56374;BME280;58212;47.034;7.376;2023-08-07T11:26:01;95760.66;;;16.62;53.77
56374;BME280;58212;47.034;7.376;2023-08-07T11:28:30;95756.75;;;16.85;54.08
56374;BME280;58212;47.034;7.376;2023-08-07T11:31:00;95767.34;;;17.37;51.97
56374;BME280;58212;47.034;7.376;2023-08-07T11:33:28;95755.81;;;17.16;50.56
56374;BME280;58212;47.034;7.376;2023-08-07T11:35:55;95751.28;;;17.27;50.27
56374;BME280;58212;47.034;7.376;2023-08-07T11:38:29;95752.41;;;18.01;50.39
56374;BME280;58212;47.034;7.376;2023-08-07T11:40:58;95752.16;;;17.83;48.89
56374;BME280;58212;47.034;7.376;2023-08-07T11:43:27;95750.22;;;18.34;49.13
56374;BME280;58212;47.034;7.376;2023-08-07T11:45:55;95750.22;;;18.24;46.60
56374;BME280;58212;47.034;7.376;2023-08-07T11:48:25;95747.59;;;18.09;47.17
56374;BME280;58212;47.034;7.376;2023-08-07T11:50:53;95748.88;;;18.36;46.39
56374;BME280;58212;47.034;7.376;2023-08-07T11:53:20;95759.31;;;18.58;46.12
56374;BME280;58212;47.034;7.376;2023-08-07T11:55:51;95749.19;;;18.10;48.63
56374;BME280;58212;47.034;7.376;2023-08-07T11:58:19;95756.91;;;18.41;47.13
56374;BME280;58212;47.034;7.376;2023-08-07T12:00:46;95742.97;;;18.54;45.83
56374;BME280;58212;47.034;7.376;2023-08-07T12:03:29;95750.50;;;17.51;49.59
56374;BME280;58212;47.034;7.376;2023-08-07T12:06:02;95754.28;;;17.96;48.25
56374;BME280;58212;47.034;7.376;2023-08-07T12:08:33;95752.69;;;17.85;48.60
56374;BME280;58212;47.034;7.376;2023-08-07T12:11:01;95757.25;;;17.84;47.14
56374;BME280;58212;47.034;7.376;2023-08-07T12:13:29;95750.88;;;16.83;48.60
56374;BME280;58212;47.034;7.376;2023-08-07T12:15:57;95754.22;;;17.25;50.16
56374;BME280;58212;47.034;7.376;2023-08-07T12:18:26;95757.94;;;17.09;51.17
56374;BME280;58212;47.034;7.376;2023-08-07T12:20:58;95751.84;;;17.49;49.05
56374;BME280;58212;47.034;7.376;2023-08-07T12:23:25;95757.25;;;17.79;48.75
56374;BME280;58212;47.034;7.376;2023-08-07T12:25:52;95756.94;;;17.35;47.54
56374;BME280;58212;47.034;7.376;2023-08-07T12:28:19;95753.72;;;17.38;47.84
56374;BME280;58212;47.034;7.376;2023-08-07T12:30:47;95753.69;;;17.23;49.23
56374;BME280;58212;47.034;7.376;2023-08-07T12:33:15;95745.88;;;17.01;50.09
56374;BME280;58212;47.034;7.376;2023-08-07T12:35:41;95744.56;;;17.14;48.71
56374;BME280;58212;47.034;7.376;2023-08-07T12:38:10;95760.53;;;16.84;50.99
56374;BME280;58212;47.034;7.376;2023-08-07T12:40:40;95765.53;;;16.70;50.89
56374;BME280;58212;47.034;7.376;2023-08-07T12:43:08;95762.72;;;17.07;52.71
56374;BME280;58212;47.034;7.376;2023-08-07T12:45:35;95757.16;;;17.24;53.68
56374;BME280;58212;47.034;7.376;2023-08-07T12:48:05;95759.78;;;17.03;51.54
56374;BME280;58212;47.034;7.376;2023-08-07T12:50:33;95754.13;;;16.90;51.51
56374;BME280;58212;47.034;7.376;2023-08-07T12:52:59;95754.44;;;17.14;52.09
56374;BME280;58212;47.034;7.376;2023-08-07T12:55:27;95741.44;;;17.57;50.33
56374;BME280;58212;47.034;7.376;2023-08-07T12:57:55;95738.44;;;17.34;47.77
56374;BME280;58212;47.034;7.376;2023-08-07T13:00:22;95733.94;;;18.00;48.97
56374;BME280;58212;47.034;7.376;2023-08-07T13:02:50;95726.16;;;18.03;47.88
56374;BME280;58212;47.034;7.376;2023-08-07T13:05:18;95722.16;;;17.66;48.29
56374;BME280;58212;47.034;7.376;2023-08-07T13:08:10;95724.59;;;17.57;46.71